createdAt,value
2019-05-30T00:00:59.788Z,55.20
2019-05-30T00:03:28.532Z,55.40
2019-05-30T00:05:58.062Z,55.50
2019-05-30T00:08:26.820Z,55.60
2019-05-30T00:10:56.417Z,55.70
2019-05-30T00:13:25.045Z,55.80
2019-05-30T00:15:54.590Z,56.20
2019-05-30T00:18:23.112Z,56.20
2019-05-30T00:20:51.552Z,56.30
2019-05-30T00:23:19.994Z,56.40
2019-05-30T00:25:48.432Z,56.50
2019-05-30T00:28:16.896Z,56.70
2019-05-30T00:30:45.326Z,56.70
2019-05-30T00:33:13.830Z,56.90
2019-05-30T00:35:42.297Z,57.10
2019-05-30T00:38:10.731Z,57.20
2019-05-30T00:40:39.177Z,57.50
2019-05-30T00:43:07.620Z,57.50
2019-05-30T00:45:36.149Z,57.70
2019-05-30T00:48:04.581Z,57.90
2019-05-30T00:50:33.038Z,57.80
2019-05-30T00:53:02.831Z,58.20
2019-05-30T00:55:31.466Z,58.10
2019-05-30T00:58:02.656Z,58.30
2019-05-30T01:00:42.618Z,58.40
2019-05-30T01:03:03.574Z,58.70
2019-05-30T01:05:31.683Z,58.80
2019-05-30T01:08:00.881Z,58.90
2019-05-30T01:10:29.389Z,58.90
2019-05-30T01:12:59.758Z,59.10
2019-05-30T01:15:28.024Z,59.10
2019-05-30T01:17:56.967Z,59.40
2019-05-30T01:20:25.625Z,59.40
2019-05-30T01:22:54.075Z,59.50
2019-05-30T01:25:24.770Z,59.70
2019-05-30T01:27:52.696Z,59.70
2019-05-30T01:30:21.216Z,59.80
2019-05-30T01:32:49.670Z,59.90
2019-05-30T01:35:18.564Z,60.10
2019-05-30T01:37:46.982Z,60.10
2019-05-30T01:40:15.801Z,60.90
2019-05-30T01:42:44.311Z,60.40
2019-05-30T01:45:13.421Z,60.50
2019-05-30T01:47:41.854Z,61.00
2019-05-30T01:50:12.759Z,60.90
2019-05-30T01:52:41.199Z,61.10
2019-05-30T01:55:11.600Z,61.50
2019-05-30T01:57:40.051Z,61.60
2019-05-30T02:00:19.871Z,61.90
2019-05-30T02:02:41.450Z,61.80
2019-05-30T02:05:12.155Z,62.00
2019-05-30T02:07:45.800Z,62.10
2019-05-30T02:10:15.687Z,62.60
2019-05-30T02:12:46.819Z,62.60
2019-05-30T02:15:18.618Z,62.80
2019-05-30T02:17:47.100Z,62.80
2019-05-30T02:20:16.024Z,63.10
2019-05-30T02:22:44.487Z,63.10
2019-05-30T02:25:13.062Z,63.50
2019-05-30T02:27:41.516Z,63.60
2019-05-30T02:30:12.651Z,63.80
2019-05-30T02:32:51.811Z,64.00
2019-05-30T02:35:20.705Z,64.30
2019-05-30T02:37:49.162Z,65.20
2019-05-30T02:40:18.421Z,64.70
2019-05-30T02:42:47.448Z,64.80
2019-05-30T02:45:16.141Z,64.90
2019-05-30T02:47:44.591Z,65.10
2019-05-30T02:50:14.163Z,65.20
2019-05-30T02:52:42.831Z,65.40
2019-05-30T02:55:13.429Z,65.40
2019-05-30T02:57:41.952Z,65.50
2019-05-30T03:00:15.737Z,65.70
2019-05-30T03:02:41.185Z,65.70
2019-05-30T03:05:12.641Z,65.90
2019-05-30T03:07:40.064Z,66.20
2019-05-30T03:10:10.255Z,67.00
2019-05-30T03:12:39.140Z,66.40
2019-05-30T03:15:11.639Z,66.70
2019-05-30T03:17:38.588Z,67.20
2019-05-30T03:20:18.296Z,67.20
2019-05-30T03:22:38.089Z,67.80
2019-05-30T03:25:07.959Z,67.80
2019-05-30T03:27:37.062Z,68.10
2019-05-30T03:30:12.983Z,68.70
2019-05-30T03:35:17.546Z,70.50
2019-05-30T03:37:38.282Z,70.10
2019-05-30T03:40:07.085Z,70.20
2019-05-30T03:42:35.534Z,70.30
2019-05-30T03:45:08.401Z,70.50
2019-05-30T03:47:39.899Z,70.80
2019-05-30T03:50:12.510Z,71.20
2019-05-30T03:52:42.367Z,71.40
2019-05-30T03:55:12.538Z,71.50
2019-05-30T03:57:53.187Z,71.80
2019-05-30T04:00:51.341Z,71.90
2019-05-30T04:03:25.890Z,72.20
2019-05-30T04:05:57.431Z,72.60
2019-05-30T04:08:28.761Z,72.90
2019-05-30T04:11:00.372Z,73.10
2019-05-30T04:13:40.850Z,73.40
2019-05-30T04:16:10.876Z,73.20
2019-05-30T04:18:39.636Z,73.60
2019-05-30T04:21:21.189Z,74.10
2019-05-30T04:24:07.250Z,74.40
2019-05-30T04:26:36.082Z,75.00
2019-05-30T04:29:04.525Z,75.40
2019-05-30T04:31:32.986Z,75.30
2019-05-30T04:34:01.500Z,75.80
2019-05-30T04:36:29.950Z,76.40
2019-05-30T04:38:58.396Z,76.60
2019-05-30T04:41:26.843Z,77.10
2019-05-30T04:43:55.308Z,78.40
2019-05-30T04:46:23.754Z,78.20
2019-05-30T04:48:52.212Z,78.10
2019-05-30T04:51:21.665Z,79.10
2019-05-30T04:53:50.590Z,79.30
2019-05-30T04:56:19.831Z,80.00
2019-05-30T04:58:49.279Z,80.10
2019-05-30T05:01:19.468Z,80.60
2019-05-30T05:03:47.960Z,80.70
2019-05-30T05:06:17.892Z,81.30
2019-05-30T05:08:46.504Z,81.50
2019-05-30T05:11:18.265Z,82.10
2019-05-30T05:13:45.192Z,83.10
2019-05-30T05:16:27.109Z,82.50
2019-05-30T05:18:43.885Z,83.20
2019-05-30T05:21:12.839Z,84.30
2019-05-30T05:23:41.357Z,84.30
2019-05-30T05:26:09.795Z,85.00
2019-05-30T05:28:38.252Z,84.90
2019-05-30T05:31:06.699Z,85.20
2019-05-30T05:33:35.144Z,85.60
2019-05-30T05:36:03.673Z,86.00
2019-05-30T05:38:32.142Z,86.10
2019-05-30T05:41:00.588Z,86.40
2019-05-30T05:43:29.038Z,86.70
2019-05-30T05:45:57.474Z,87.40
2019-05-30T05:48:25.921Z,87.50
2019-05-30T05:50:54.376Z,87.70
2019-05-30T05:53:23.046Z,88.30
2019-05-30T05:55:51.873Z,88.00
2019-05-30T05:58:20.866Z,88.80
2019-05-30T06:00:49.840Z,88.90
2019-05-30T06:03:18.875Z,89.00
2019-05-30T06:05:52.933Z,89.00
2019-05-30T06:08:17.890Z,89.30
2019-05-30T06:10:46.328Z,89.30
2019-05-30T06:13:14.794Z,89.40
2019-05-30T06:15:43.234Z,89.80
2019-05-30T06:18:11.733Z,89.70
2019-05-30T06:20:40.226Z,90.00
2019-05-30T06:23:08.680Z,90.00
2019-05-30T06:25:37.186Z,90.10
2019-05-30T06:28:05.654Z,90.20
2019-05-30T06:30:34.088Z,90.20
2019-05-30T06:33:02.543Z,90.30
2019-05-30T06:35:30.989Z,90.20
2019-05-30T06:37:59.465Z,90.20
2019-05-30T06:40:30.929Z,90.20
2019-05-30T06:42:58.131Z,90.20
2019-05-30T06:45:26.821Z,90.10
2019-05-30T06:47:55.500Z,90.00
2019-05-30T06:50:24.713Z,89.90
2019-05-30T06:52:53.496Z,89.90
2019-05-30T06:55:23.078Z,89.80
2019-05-30T06:57:51.655Z,90.00
2019-05-30T07:00:21.602Z,89.80
2019-05-30T07:02:50.220Z,90.00
2019-05-30T07:05:19.560Z,89.90
2019-05-30T07:07:48.637Z,89.80
2019-05-30T07:10:17.844Z,89.70
2019-05-30T07:12:46.384Z,89.60
2019-05-30T07:15:15.072Z,89.50
2019-05-30T07:17:43.524Z,89.20
2019-05-30T07:20:12.832Z,89.20
2019-05-30T07:22:41.362Z,89.40
2019-05-30T07:25:10.360Z,89.20
2019-05-30T07:27:38.833Z,89.10
2019-05-30T07:30:08.524Z,89.00
2019-05-30T07:32:36.969Z,88.90
2019-05-30T07:35:07.501Z,88.70
2019-05-30T07:37:36.191Z,88.80
2019-05-30T07:40:08.882Z,88.80
2019-05-30T07:42:37.398Z,88.70
2019-05-30T07:45:08.847Z,88.80
2019-05-30T07:47:38.440Z,88.50
2019-05-30T07:50:09.186Z,88.60
2019-05-30T07:52:38.893Z,88.70
2019-05-30T07:55:13.591Z,88.80
2019-05-30T07:57:43.548Z,88.90
2019-05-30T08:00:13.935Z,89.90
2019-05-30T08:02:42.652Z,88.90
2019-05-30T08:05:23.745Z,88.90
2019-05-30T08:07:41.972Z,89.00
2019-05-30T08:10:11.156Z,88.90
2019-05-30T08:12:39.691Z,88.70
2019-05-30T08:15:09.675Z,88.30
2019-05-30T08:17:38.115Z,88.60
2019-05-30T08:20:08.006Z,88.60
2019-05-30T08:22:36.448Z,88.60
2019-05-30T08:25:08.363Z,88.70
2019-05-30T08:27:36.807Z,88.80
2019-05-30T08:30:09.466Z,88.60
2019-05-30T08:32:38.899Z,88.90
2019-05-30T08:35:12.118Z,88.90
2019-05-30T08:37:40.646Z,88.90
2019-05-30T08:40:10.827Z,89.00
2019-05-30T08:42:40.312Z,88.90
2019-05-30T08:45:10.267Z,88.90
2019-05-30T08:47:40.394Z,88.80
2019-05-30T08:50:10.602Z,88.60
2019-05-30T08:52:39.077Z,88.70
2019-05-30T08:55:08.225Z,88.50
2019-05-30T08:57:36.828Z,88.20
2019-05-30T09:00:10.407Z,88.10
2019-05-30T09:02:38.933Z,88.20
2019-05-30T09:05:08.706Z,88.10
2019-05-30T09:07:38.256Z,88.00
2019-05-30T09:10:09.329Z,87.90
2019-05-30T09:12:38.712Z,87.80
2019-05-30T09:15:12.347Z,87.80
2019-05-30T09:17:42.465Z,87.60
2019-05-30T09:20:12.284Z,87.40
2019-05-30T09:22:41.802Z,87.40
2019-05-30T09:25:11.760Z,87.20
2019-05-30T09:27:40.783Z,87.10
2019-05-30T09:30:12.746Z,87.20
2019-05-30T09:32:41.689Z,87.00
2019-05-30T09:35:13.208Z,87.30
2019-05-30T09:37:42.413Z,87.10
2019-05-30T09:40:12.730Z,87.00
2019-05-30T09:42:44.154Z,87.30
2019-05-30T09:45:12.696Z,87.30
2019-05-30T09:47:41.951Z,87.30
2019-05-30T09:50:11.656Z,87.20
2019-05-30T09:52:41.589Z,87.40
2019-05-30T09:55:12.328Z,87.40
2019-05-30T09:57:42.488Z,87.50
2019-05-30T10:00:13.035Z,87.50
2019-05-30T10:02:42.898Z,87.60
2019-05-30T10:05:11.914Z,87.60
2019-05-30T10:07:40.360Z,87.50
2019-05-30T10:10:12.353Z,87.50
2019-05-30T10:12:40.802Z,87.50
2019-05-30T10:15:11.259Z,87.40
2019-05-30T10:17:39.853Z,87.90
2019-05-30T10:20:08.739Z,87.20
2019-05-30T10:22:37.213Z,87.10
2019-05-30T10:25:07.105Z,87.10
2019-05-30T10:27:35.551Z,87.20
2019-05-30T10:30:09.041Z,87.50
2019-05-30T10:32:37.476Z,87.40
2019-05-30T10:35:06.784Z,87.20
2019-05-30T10:37:35.243Z,87.20
2019-05-30T10:40:08.285Z,87.20
2019-05-30T10:42:36.743Z,86.80
2019-05-30T10:45:07.903Z,86.50
2019-05-30T10:47:36.346Z,86.40
2019-05-30T10:50:06.906Z,86.20
2019-05-30T10:52:35.364Z,85.90
2019-05-30T10:55:06.946Z,86.10
2019-05-30T10:57:35.522Z,86.00
2019-05-30T11:00:09.560Z,85.80
2019-05-30T11:02:37.195Z,85.60
2019-05-30T11:05:07.649Z,85.50
2019-05-30T11:08:05.650Z,85.50
2019-05-30T11:10:36.560Z,85.40
2019-05-30T11:13:07.509Z,85.40
2019-05-30T11:15:36.026Z,86.20
2019-05-30T11:18:05.213Z,85.40
2019-05-30T11:20:33.666Z,85.50
2019-05-30T11:23:02.101Z,85.50
2019-05-30T11:25:31.515Z,85.80
2019-05-30T11:27:59.972Z,85.60
2019-05-30T11:30:28.852Z,85.60
2019-05-30T11:32:57.382Z,85.80
2019-05-30T11:35:25.815Z,85.60
2019-05-30T11:37:55.799Z,84.30
2019-05-30T11:40:24.339Z,83.80
2019-05-30T11:42:53.383Z,83.00
2019-05-30T11:45:22.080Z,81.70
2019-05-30T11:47:51.471Z,81.50
2019-05-30T11:50:20.480Z,81.30
2019-05-30T11:52:49.834Z,81.00
2019-05-30T11:55:18.544Z,81.60
2019-05-30T11:57:47.064Z,79.80
2019-05-30T12:00:15.764Z,79.10
2019-05-30T12:02:44.198Z,76.80
2019-05-30T12:05:14.390Z,77.00
2019-05-30T12:07:42.845Z,76.60
2019-05-30T12:10:11.626Z,76.70
2019-05-30T12:12:40.151Z,76.00
2019-05-30T12:15:10.220Z,74.60
2019-05-30T12:17:38.659Z,74.20
2019-05-30T12:20:07.761Z,74.30
2019-05-30T12:22:36.222Z,74.00
2019-05-30T12:25:06.684Z,74.40
2019-05-30T12:27:36.424Z,74.20
2019-05-30T12:30:09.408Z,74.40
2019-05-30T12:32:37.865Z,74.00
2019-05-30T12:35:11.628Z,73.50
2019-05-30T12:37:54.645Z,73.40
2019-05-30T12:40:19.328Z,72.90
2019-05-30T12:42:55.419Z,72.20
2019-05-30T12:45:25.421Z,72.20
2019-05-30T12:47:55.156Z,72.40
2019-05-30T12:50:25.395Z,72.10
2019-05-30T12:52:57.470Z,72.00
2019-05-30T12:55:24.842Z,72.20
2019-05-30T12:57:54.509Z,71.70
2019-05-30T13:00:26.385Z,71.60
2019-05-30T13:02:54.823Z,71.40
2019-05-30T13:05:23.349Z,71.60
2019-05-30T13:07:51.801Z,71.80
2019-05-30T13:10:20.676Z,71.20
2019-05-30T13:12:49.152Z,71.30
2019-05-30T13:15:17.823Z,71.20
2019-05-30T13:17:46.287Z,70.70
2019-05-30T13:20:16.846Z,71.10
2019-05-30T13:22:45.301Z,70.60
2019-05-30T13:25:16.412Z,70.20
2019-05-30T13:27:45.072Z,69.40
2019-05-30T13:30:15.061Z,69.70
2019-05-30T13:32:43.538Z,69.90
2019-05-30T13:35:12.649Z,69.70
2019-05-30T13:37:41.191Z,70.00
2019-05-30T13:40:24.187Z,69.40
2019-05-30T13:42:42.193Z,69.40
2019-05-30T13:45:11.595Z,69.00
2019-05-30T13:47:40.200Z,69.00
2019-05-30T13:50:13.451Z,69.00
2019-05-30T13:52:41.199Z,69.10
2019-05-30T13:55:15.312Z,69.10
2019-05-30T13:57:46.334Z,69.00
2019-05-30T14:00:16.534Z,69.50
2019-05-30T14:02:49.949Z,68.60
2019-05-30T14:05:21.800Z,68.80
2019-05-30T14:07:50.234Z,68.80
2019-05-30T14:10:18.916Z,68.90
2019-05-30T14:12:47.397Z,68.40
2019-05-30T14:15:17.143Z,68.40
2019-05-30T14:17:45.589Z,67.70
2019-05-30T14:20:14.865Z,67.50
2019-05-30T14:22:43.310Z,66.70
2019-05-30T14:25:13.558Z,66.80
2019-05-30T14:27:42.024Z,66.70
2019-05-30T14:30:12.916Z,66.40
2019-05-30T14:32:43.589Z,66.10
2019-05-30T14:35:13.783Z,65.70
2019-05-30T14:37:42.507Z,65.90
2019-05-30T14:40:13.192Z,65.90
2019-05-30T14:42:41.795Z,66.10
2019-05-30T14:45:12.611Z,66.40
2019-05-30T14:47:41.123Z,66.40
2019-05-30T14:50:13.045Z,66.00
2019-05-30T14:52:41.757Z,66.50
2019-05-30T14:55:11.098Z,66.80
2019-05-30T14:57:39.783Z,66.80
2019-05-30T15:00:11.345Z,67.10
2019-05-30T15:02:39.837Z,67.30
2019-05-30T15:05:09.377Z,67.80
2019-05-30T15:07:37.982Z,67.30
2019-05-30T15:10:08.517Z,67.20
2019-05-30T15:12:37.422Z,67.20
2019-05-30T15:15:14.761Z,67.00
2019-05-30T15:17:42.363Z,66.30
2019-05-30T15:20:13.976Z,66.30
2019-05-30T15:22:42.446Z,66.40
2019-05-30T15:25:16.462Z,65.70
2019-05-30T15:27:46.985Z,65.80
2019-05-30T15:30:16.878Z,65.70
2019-05-30T15:32:45.524Z,65.20
2019-05-30T15:35:15.673Z,65.20
2019-05-30T15:37:44.642Z,64.70
2019-05-30T15:40:15.065Z,65.00
2019-05-30T15:42:44.525Z,64.80
2019-05-30T15:45:16.176Z,64.90
2019-05-30T15:47:56.729Z,65.00
2019-05-30T15:50:26.891Z,65.30
2019-05-30T15:52:55.370Z,65.20
2019-05-30T15:55:23.806Z,64.60
2019-05-30T15:57:52.341Z,64.20
2019-05-30T16:00:22.044Z,62.70
2019-05-30T16:02:50.523Z,61.90
2019-05-30T16:05:19.174Z,60.60
2019-05-30T16:07:47.624Z,60.70
2019-05-30T16:10:17.002Z,61.10
2019-05-30T16:12:45.658Z,61.10
2019-05-30T16:15:15.435Z,60.50
2019-05-30T16:17:44.268Z,60.50
2019-05-30T16:20:13.857Z,60.60
2019-05-30T16:22:43.029Z,60.70
2019-05-30T16:25:11.912Z,61.00
2019-05-30T16:27:40.360Z,61.40
2019-05-30T16:30:10.201Z,61.50
2019-05-30T16:32:38.974Z,61.90
2019-05-30T16:35:07.862Z,62.10
2019-05-30T16:37:36.302Z,62.20
2019-05-30T16:40:09.029Z,62.50
2019-05-30T16:42:37.485Z,62.20
2019-05-30T16:45:08.896Z,62.40
2019-05-30T16:47:37.774Z,62.20
2019-05-30T16:50:08.723Z,62.40
2019-05-30T16:52:37.234Z,62.40
2019-05-30T16:55:08.000Z,62.70
2019-05-30T16:57:36.440Z,62.10
2019-05-30T17:00:07.196Z,61.90
2019-05-30T17:02:35.637Z,61.70
2019-05-30T17:05:06.704Z,62.00
2019-05-30T17:07:35.136Z,62.40
2019-05-30T17:10:21.339Z,62.70
2019-05-30T17:12:35.929Z,62.30
2019-05-30T17:15:07.379Z,61.50
2019-05-30T17:17:35.840Z,61.30
2019-05-30T17:20:09.527Z,61.60
2019-05-30T17:22:37.987Z,61.20
2019-05-30T17:25:09.761Z,61.20
2019-05-30T17:27:38.289Z,61.20
2019-05-30T17:30:12.932Z,60.90
2019-05-30T17:32:41.380Z,60.60
2019-05-30T17:35:10.255Z,61.10
2019-05-30T17:37:38.710Z,61.60
2019-05-30T17:40:07.868Z,61.90
2019-05-30T17:42:36.963Z,61.80
2019-05-30T17:45:08.516Z,61.90
2019-05-30T17:47:37.033Z,62.10
2019-05-30T17:50:08.369Z,62.20
2019-05-30T17:52:36.881Z,62.50
2019-05-30T17:55:06.476Z,62.80
2019-05-30T17:57:34.927Z,62.90
2019-05-30T18:00:04.546Z,63.20
2019-05-30T18:02:32.986Z,63.10
2019-05-30T18:05:01.431Z,63.30
2019-05-30T18:07:31.125Z,63.10
2019-05-30T18:09:59.831Z,62.90
2019-05-30T18:12:29.118Z,62.50
2019-05-30T18:14:57.730Z,62.60
2019-05-30T18:17:27.207Z,62.50
2019-05-30T18:19:55.733Z,62.50
2019-05-30T18:22:25.463Z,62.70
2019-05-30T18:24:54.019Z,62.90
2019-05-30T18:27:23.763Z,63.10
2019-05-30T18:29:55.646Z,63.30
2019-05-30T18:32:24.149Z,63.50
2019-05-30T18:34:52.651Z,63.80
2019-05-30T18:37:22.251Z,64.00
2019-05-30T18:39:50.981Z,64.00
2019-05-30T18:42:19.411Z,63.90
2019-05-30T18:44:47.859Z,64.10
2019-05-30T18:47:16.305Z,64.30
2019-05-30T18:49:44.753Z,64.50
2019-05-30T18:52:13.187Z,64.60
2019-05-30T18:54:41.641Z,64.60
2019-05-30T18:57:10.078Z,64.80
2019-05-30T18:59:38.533Z,64.90
2019-05-30T19:02:06.981Z,64.90
2019-05-30T19:04:35.890Z,65.20
2019-05-30T19:07:04.384Z,65.10
2019-05-30T19:09:33.517Z,65.20
2019-05-30T19:12:02.978Z,65.40
2019-05-30T19:14:34.099Z,65.40
2019-05-30T19:17:01.588Z,65.40
2019-05-30T19:19:30.035Z,65.50
2019-05-30T19:21:58.488Z,65.50
2019-05-30T19:24:28.045Z,65.70
2019-05-30T19:26:56.695Z,65.80
2019-05-30T19:29:26.568Z,66.10
2019-05-30T19:31:55.260Z,66.20
2019-05-30T19:34:23.813Z,66.40
2019-05-30T19:36:53.643Z,66.60
2019-05-30T19:39:22.135Z,66.70
2019-05-30T19:41:56.783Z,66.80
2019-05-30T19:44:20.936Z,67.00
2019-05-30T19:46:49.392Z,67.20
2019-05-30T19:49:18.128Z,67.90
2019-05-30T19:51:46.601Z,67.50
2019-05-30T19:54:15.080Z,67.60
2019-05-30T19:56:43.518Z,67.90
2019-05-30T19:59:13.728Z,67.90
2019-05-30T20:01:42.461Z,68.00
2019-05-30T20:04:10.909Z,68.10
2019-05-30T20:06:40.873Z,68.30
2019-05-30T20:09:09.476Z,68.40
2019-05-30T20:11:39.252Z,68.50
2019-05-30T20:14:07.931Z,68.60
2019-05-30T20:16:37.744Z,68.80
2019-05-30T20:19:06.395Z,69.00
2019-05-30T20:21:35.734Z,69.10
2019-05-30T20:24:04.576Z,69.20
2019-05-30T20:26:34.346Z,69.50
2019-05-30T20:29:02.942Z,69.60
2019-05-30T20:31:31.406Z,69.80
2019-05-30T20:33:59.883Z,70.20
2019-05-30T20:36:28.316Z,70.30
2019-05-30T20:38:56.817Z,70.70
2019-05-30T20:41:25.286Z,70.90
2019-05-30T20:43:55.374Z,71.00
2019-05-30T20:46:23.931Z,71.20
2019-05-30T20:48:52.439Z,71.30
2019-05-30T20:51:21.661Z,71.50
2019-05-30T20:53:50.286Z,72.50
2019-05-30T20:56:18.732Z,72.00
2019-05-30T20:58:47.172Z,72.20
2019-05-30T21:01:15.620Z,72.40
2019-05-30T21:03:44.132Z,72.50
2019-05-30T21:06:13.825Z,72.60
2019-05-30T21:08:43.194Z,72.70
2019-05-30T21:11:12.275Z,73.00
2019-05-30T21:13:42.224Z,73.00
2019-05-30T21:16:13.179Z,73.00
2019-05-30T21:18:46.030Z,73.10
2019-05-30T21:21:16.681Z,73.00
2019-05-30T21:23:46.644Z,73.00
2019-05-30T21:26:15.203Z,73.20
2019-05-30T21:28:43.648Z,73.30
2019-05-30T21:31:12.092Z,73.30
2019-05-30T21:33:41.781Z,73.30
2019-05-30T21:36:10.569Z,73.30
2019-05-30T21:38:39.897Z,73.30
2019-05-30T21:41:08.436Z,73.50
2019-05-30T21:43:36.903Z,73.60
2019-05-30T21:46:05.362Z,73.80
2019-05-30T21:48:33.804Z,74.50
2019-05-30T21:51:02.315Z,74.00
2019-05-30T21:53:30.750Z,74.20
2019-05-30T21:55:59.198Z,74.30
2019-05-30T21:58:27.636Z,74.30
2019-05-30T22:01:05.022Z,74.60
2019-05-30T22:03:33.451Z,74.60
2019-05-30T22:06:01.888Z,74.90
2019-05-30T22:08:30.337Z,74.80
2019-05-30T22:10:58.859Z,74.90
2019-05-30T22:13:27.298Z,74.90
2019-05-30T22:15:55.736Z,75.10
2019-05-30T22:18:24.198Z,75.10
2019-05-30T22:20:52.652Z,75.30
2019-05-30T22:23:21.091Z,75.30
2019-05-30T22:25:50.335Z,75.30
2019-05-30T22:28:19.059Z,75.40
2019-05-30T22:30:48.518Z,75.80
2019-05-30T22:33:17.113Z,76.30
2019-05-30T22:35:46.693Z,77.80
2019-05-30T22:38:15.288Z,78.50
2019-05-30T22:41:03.078Z,78.80
2019-05-30T22:43:31.520Z,79.90
2019-05-30T22:45:59.961Z,80.50
2019-05-30T22:48:28.407Z,81.90
2019-05-30T22:50:57.030Z,81.90
2019-05-30T22:53:25.670Z,82.80
2019-05-30T22:55:54.107Z,83.60
2019-05-30T22:58:22.568Z,84.20
2019-05-30T23:00:52.087Z,84.90
2019-05-30T23:03:20.714Z,85.00
2019-05-30T23:05:49.300Z,86.10
2019-05-30T23:08:17.779Z,86.10
2019-05-30T23:10:47.565Z,86.40
2019-05-30T23:13:16.132Z,86.40
2019-05-30T23:15:45.967Z,87.00
2019-05-30T23:18:14.615Z,87.30
2019-05-30T23:20:43.144Z,87.60
2019-05-30T23:23:11.593Z,87.80
2019-05-30T23:25:40.043Z,87.90
2019-05-30T23:28:08.497Z,88.10
2019-05-30T23:30:36.945Z,88.30
2019-05-30T23:33:05.464Z,88.60
2019-05-30T23:35:33.908Z,88.80
2019-05-30T23:38:02.386Z,88.80
2019-05-30T23:40:30.810Z,89.10
2019-05-30T23:42:59.321Z,89.20
2019-05-30T23:45:27.781Z,89.10
2019-05-30T23:47:56.224Z,89.30
2019-05-30T23:50:24.827Z,89.70
2019-05-30T23:52:54.096Z,89.60
2019-05-30T23:55:22.711Z,89.60
2019-05-30T23:57:52.373Z,89.50
